sensor_id;sensor_type;location;lat;lon;timestamp;P1;durP1;ratioP1;P2;durP2;ratioP2
5923;SDS011;2987;50.884;14.818;2024-03-02T00:00:05;32.40;;;24.87;;
5923;SDS011;2987;50.884;14.818;2024-03-02T00:02:42;33.80;;;24.67;;
5923;SDS011;2987;50.884;14.818;2024-03-02T00:05:11;34.97;;;24.23;;
5923;SDS011;2987;50.884;14.818;2024-03-02T00:07:39;29.23;;;22.77;;
5923;SDS011;2987;50.884;14.818;2024-03-02T00:10:10;30.27;;;23.07;;
5923;SDS011;2987;50.884;14.818;2024-03-02T00:12:40;27.70;;;21.27;;
5923;SDS011;2987;50.884;14.818;2024-03-02T00:15:52;29.10;;;22.17;;
5923;SDS011;2987;50.884;14.818;2024-03-02T00:18:06;31.93;;;23.60;;
5923;SDS011;2987;50.884;14.818;2024-03-02T00:20:37;33.30;;;24.37;;
5923;SDS011;2987;50.884;14.818;2024-03-02T00:23:04;33.40;;;24.50;;
5923;SDS011;2987;50.884;14.818;2024-03-02T00:25:41;40.63;;;25.97;;
5923;SDS011;2987;50.884;14.818;2024-03-02T00:28:27;38.67;;;25.73;;
5923;SDS011;2987;50.884;14.818;2024-03-02T00:33:43;38.70;;;25.83;;
5923;SDS011;2987;50.884;14.818;2024-03-02T00:36:11;35.37;;;25.23;;
5923;SDS011;2987;50.884;14.818;2024-03-02T00:38:42;46.00;;;28.37;;
5923;SDS011;2987;50.884;14.818;2024-03-02T00:41:16;38.87;;;25.73;;
5923;SDS011;2987;50.884;14.818;2024-03-02T00:43:50;39.50;;;26.60;;
5923;SDS011;2987;50.884;14.818;2024-03-02T00:46:23;43.83;;;27.43;;
5923;SDS011;2987;50.884;14.818;2024-03-02T00:51:24;46.50;;;29.97;;
5923;SDS011;2987;50.884;14.818;2024-03-02T00:53:52;46.37;;;29.90;;
5923;SDS011;2987;50.884;14.818;2024-03-02T00:56:22;56.30;;;33.53;;
5923;SDS011;2987;50.884;14.818;2024-03-02T00:58:49;54.33;;;34.23;;
5923;SDS011;2987;50.884;14.818;2024-03-02T01:01:15;56.27;;;33.40;;
5923;SDS011;2987;50.884;14.818;2024-03-02T01:03:42;57.17;;;33.87;;
5923;SDS011;2987;50.884;14.818;2024-03-02T01:06:08;63.57;;;35.97;;
5923;SDS011;2987;50.884;14.818;2024-03-02T01:08:35;60.90;;;35.43;;
5923;SDS011;2987;50.884;14.818;2024-03-02T01:11:02;58.40;;;35.13;;
5923;SDS011;2987;50.884;14.818;2024-03-02T01:13:29;61.83;;;36.23;;
5923;SDS011;2987;50.884;14.818;2024-03-02T01:15:55;61.37;;;35.40;;
5923;SDS011;2987;50.884;14.818;2024-03-02T01:18:22;62.27;;;36.63;;
5923;SDS011;2987;50.884;14.818;2024-03-02T01:20:49;62.97;;;35.63;;
5923;SDS011;2987;50.884;14.818;2024-03-02T01:23:20;61.10;;;37.67;;
5923;SDS011;2987;50.884;14.818;2024-03-02T01:25:50;65.77;;;36.67;;
5923;SDS011;2987;50.884;14.818;2024-03-02T01:28:17;65.50;;;37.40;;
5923;SDS011;2987;50.884;14.818;2024-03-02T01:30:44;67.17;;;38.47;;
5923;SDS011;2987;50.884;14.818;2024-03-02T01:33:11;67.27;;;37.87;;
5923;SDS011;2987;50.884;14.818;2024-03-02T01:35:37;63.17;;;37.77;;
5923;SDS011;2987;50.884;14.818;2024-03-02T01:38:03;69.77;;;38.63;;
5923;SDS011;2987;50.884;14.818;2024-03-02T01:40:34;73.30;;;39.70;;
5923;SDS011;2987;50.884;14.818;2024-03-02T01:43:00;73.83;;;39.00;;
5923;SDS011;2987;50.884;14.818;2024-03-02T01:45:28;70.53;;;38.53;;
5923;SDS011;2987;50.884;14.818;2024-03-02T01:47:54;82.83;;;40.30;;
5923;SDS011;2987;50.884;14.818;2024-03-02T01:50:27;76.20;;;40.80;;
5923;SDS011;2987;50.884;14.818;2024-03-02T01:52:54;78.23;;;41.90;;
5923;SDS011;2987;50.884;14.818;2024-03-02T01:55:21;78.67;;;40.30;;
5923;SDS011;2987;50.884;14.818;2024-03-02T01:57:48;77.10;;;40.90;;
5923;SDS011;2987;50.884;14.818;2024-03-02T02:00:16;74.10;;;40.73;;
5923;SDS011;2987;50.884;14.818;2024-03-02T02:02:43;68.77;;;38.70;;
5923;SDS011;2987;50.884;14.818;2024-03-02T02:05:09;87.20;;;43.97;;
5923;SDS011;2987;50.884;14.818;2024-03-02T02:07:36;74.67;;;41.33;;
5923;SDS011;2987;50.884;14.818;2024-03-02T02:10:02;79.13;;;43.43;;
5923;SDS011;2987;50.884;14.818;2024-03-02T02:12:28;79.83;;;43.83;;
5923;SDS011;2987;50.884;14.818;2024-03-02T02:14:54;78.63;;;43.17;;
5923;SDS011;2987;50.884;14.818;2024-03-02T02:17:20;74.00;;;42.73;;
5923;SDS011;2987;50.884;14.818;2024-03-02T02:19:47;82.70;;;43.83;;
5923;SDS011;2987;50.884;14.818;2024-03-02T02:22:13;78.90;;;44.77;;
5923;SDS011;2987;50.884;14.818;2024-03-02T02:24:39;74.10;;;43.57;;
5923;SDS011;2987;50.884;14.818;2024-03-02T02:27:07;80.77;;;43.93;;
5923;SDS011;2987;50.884;14.818;2024-03-02T02:29:34;68.70;;;41.13;;
5923;SDS011;2987;50.884;14.818;2024-03-02T02:32:00;78.57;;;41.87;;
5923;SDS011;2987;50.884;14.818;2024-03-02T02:34:26;74.43;;;43.20;;
5923;SDS011;2987;50.884;14.818;2024-03-02T02:36:53;73.30;;;41.93;;
5923;SDS011;2987;50.884;14.818;2024-03-02T02:39:20;71.50;;;42.57;;
5923;SDS011;2987;50.884;14.818;2024-03-02T02:41:48;73.43;;;43.03;;
5923;SDS011;2987;50.884;14.818;2024-03-02T02:44:14;76.47;;;43.50;;
5923;SDS011;2987;50.884;14.818;2024-03-02T02:46:40;79.43;;;44.07;;
5923;SDS011;2987;50.884;14.818;2024-03-02T02:49:07;71.30;;;42.83;;
5923;SDS011;2987;50.884;14.818;2024-03-02T02:51:33;77.80;;;43.97;;
5923;SDS011;2987;50.884;14.818;2024-03-02T02:53:59;77.60;;;44.07;;
5923;SDS011;2987;50.884;14.818;2024-03-02T02:56:26;74.13;;;43.27;;
5923;SDS011;2987;50.884;14.818;2024-03-02T02:58:52;76.80;;;42.63;;
5923;SDS011;2987;50.884;14.818;2024-03-02T03:01:18;85.13;;;46.10;;
5923;SDS011;2987;50.884;14.818;2024-03-02T03:03:44;86.10;;;44.77;;
5923;SDS011;2987;50.884;14.818;2024-03-02T03:06:11;82.70;;;43.70;;
5923;SDS011;2987;50.884;14.818;2024-03-02T03:08:37;87.93;;;46.70;;
5923;SDS011;2987;50.884;14.818;2024-03-02T03:11:04;81.53;;;44.67;;
5923;SDS011;2987;50.884;14.818;2024-03-02T03:13:31;87.77;;;46.43;;
5923;SDS011;2987;50.884;14.818;2024-03-02T03:15:57;84.10;;;43.73;;
5923;SDS011;2987;50.884;14.818;2024-03-02T03:18:23;89.53;;;45.93;;
5923;SDS011;2987;50.884;14.818;2024-03-02T03:20:50;86.17;;;46.73;;
5923;SDS011;2987;50.884;14.818;2024-03-02T03:23:16;82.93;;;46.40;;
5923;SDS011;2987;50.884;14.818;2024-03-02T03:25:42;81.87;;;45.77;;
5923;SDS011;2987;50.884;14.818;2024-03-02T03:28:09;80.17;;;45.83;;
5923;SDS011;2987;50.884;14.818;2024-03-02T03:30:38;76.93;;;44.20;;
5923;SDS011;2987;50.884;14.818;2024-03-02T03:33:05;91.23;;;46.17;;
5923;SDS011;2987;50.884;14.818;2024-03-02T03:35:32;86.43;;;45.43;;
5923;SDS011;2987;50.884;14.818;2024-03-02T03:37:58;82.37;;;44.37;;
5923;SDS011;2987;50.884;14.818;2024-03-02T03:40:24;80.30;;;44.20;;
5923;SDS011;2987;50.884;14.818;2024-03-02T03:42:51;78.67;;;43.63;;
5923;SDS011;2987;50.884;14.818;2024-03-02T03:45:18;85.60;;;44.13;;
5923;SDS011;2987;50.884;14.818;2024-03-02T03:47:45;80.07;;;44.80;;
5923;SDS011;2987;50.884;14.818;2024-03-02T03:50:11;79.57;;;41.93;;
5923;SDS011;2987;50.884;14.818;2024-03-02T03:52:37;75.03;;;43.37;;
5923;SDS011;2987;50.884;14.818;2024-03-02T03:55:04;78.33;;;42.77;;
5923;SDS011;2987;50.884;14.818;2024-03-02T03:57:30;85.10;;;45.20;;
5923;SDS011;2987;50.884;14.818;2024-03-02T03:59:57;77.43;;;41.97;;
5923;SDS011;2987;50.884;14.818;2024-03-02T04:02:23;81.23;;;42.80;;
5923;SDS011;2987;50.884;14.818;2024-03-02T04:04:50;72.07;;;42.50;;
5923;SDS011;2987;50.884;14.818;2024-03-02T04:07:16;80.30;;;43.47;;
5923;SDS011;2987;50.884;14.818;2024-03-02T04:09:42;76.27;;;43.67;;
5923;SDS011;2987;50.884;14.818;2024-03-02T04:12:08;76.07;;;42.00;;
5923;SDS011;2987;50.884;14.818;2024-03-02T04:14:34;79.10;;;43.47;;
5923;SDS011;2987;50.884;14.818;2024-03-02T04:17:01;78.20;;;41.77;;
5923;SDS011;2987;50.884;14.818;2024-03-02T04:19:27;75.13;;;42.87;;
5923;SDS011;2987;50.884;14.818;2024-03-02T04:21:53;72.73;;;42.27;;
5923;SDS011;2987;50.884;14.818;2024-03-02T04:24:19;79.30;;;41.53;;
5923;SDS011;2987;50.884;14.818;2024-03-02T04:26:45;74.87;;;40.60;;
5923;SDS011;2987;50.884;14.818;2024-03-02T04:29:11;72.33;;;39.63;;
5923;SDS011;2987;50.884;14.818;2024-03-02T04:31:37;71.10;;;40.20;;
5923;SDS011;2987;50.884;14.818;2024-03-02T04:34:04;71.00;;;40.30;;
5923;SDS011;2987;50.884;14.818;2024-03-02T04:36:30;68.30;;;38.80;;
5923;SDS011;2987;50.884;14.818;2024-03-02T04:38:56;68.23;;;38.90;;
5923;SDS011;2987;50.884;14.818;2024-03-02T04:41:22;67.63;;;36.93;;
5923;SDS011;2987;50.884;14.818;2024-03-02T04:43:48;61.33;;;35.13;;
5923;SDS011;2987;50.884;14.818;2024-03-02T04:46:14;60.57;;;33.57;;
5923;SDS011;2987;50.884;14.818;2024-03-02T04:48:40;57.53;;;33.30;;
5923;SDS011;2987;50.884;14.818;2024-03-02T04:51:07;56.87;;;33.27;;
5923;SDS011;2987;50.884;14.818;2024-03-02T04:53:33;57.83;;;32.83;;
5923;SDS011;2987;50.884;14.818;2024-03-02T04:55:59;58.60;;;32.73;;
5923;SDS011;2987;50.884;14.818;2024-03-02T04:58:44;60.80;;;33.97;;
5923;SDS011;2987;50.884;14.818;2024-03-02T05:01:10;56.10;;;33.37;;
5923;SDS011;2987;50.884;14.818;2024-03-02T05:03:36;62.67;;;35.23;;
5923;SDS011;2987;50.884;14.818;2024-03-02T05:06:02;55.10;;;33.73;;
5923;SDS011;2987;50.884;14.818;2024-03-02T05:08:29;54.10;;;33.70;;
5923;SDS011;2987;50.884;14.818;2024-03-02T05:10:55;56.20;;;33.77;;
5923;SDS011;2987;50.884;14.818;2024-03-02T05:13:41;53.03;;;33.43;;
5923;SDS011;2987;50.884;14.818;2024-03-02T05:16:07;57.83;;;33.93;;
5923;SDS011;2987;50.884;14.818;2024-03-02T05:18:33;57.70;;;33.07;;
5923;SDS011;2987;50.884;14.818;2024-03-02T05:20:59;54.93;;;33.00;;
5923;SDS011;2987;50.884;14.818;2024-03-02T05:23:25;57.93;;;32.50;;
5923;SDS011;2987;50.884;14.818;2024-03-02T05:25:51;57.23;;;32.90;;
5923;SDS011;2987;50.884;14.818;2024-03-02T05:28:18;56.23;;;32.70;;
5923;SDS011;2987;50.884;14.818;2024-03-02T05:30:44;52.37;;;32.47;;
5923;SDS011;2987;50.884;14.818;2024-03-02T05:33:10;54.50;;;32.20;;
5923;SDS011;2987;50.884;14.818;2024-03-02T05:35:36;52.03;;;32.30;;
5923;SDS011;2987;50.884;14.818;2024-03-02T05:38:02;45.93;;;28.93;;
5923;SDS011;2987;50.884;14.818;2024-03-02T05:40:28;55.10;;;29.47;;
5923;SDS011;2987;50.884;14.818;2024-03-02T05:42:54;47.77;;;28.87;;
5923;SDS011;2987;50.884;14.818;2024-03-02T05:45:21;47.63;;;27.50;;
5923;SDS011;2987;50.884;14.818;2024-03-02T05:47:47;48.37;;;27.97;;
5923;SDS011;2987;50.884;14.818;2024-03-02T05:50:13;41.00;;;26.47;;
5923;SDS011;2987;50.884;14.818;2024-03-02T05:52:39;47.43;;;26.27;;
5923;SDS011;2987;50.884;14.818;2024-03-02T05:55:05;43.07;;;26.77;;
5923;SDS011;2987;50.884;14.818;2024-03-02T05:57:31;46.53;;;27.00;;
5923;SDS011;2987;50.884;14.818;2024-03-02T06:00:10;41.93;;;26.47;;
5923;SDS011;2987;50.884;14.818;2024-03-02T06:02:39;42.90;;;26.37;;
5923;SDS011;2987;50.884;14.818;2024-03-02T06:05:06;44.40;;;25.70;;
5923;SDS011;2987;50.884;14.818;2024-03-02T06:07:32;44.20;;;26.20;;
5923;SDS011;2987;50.884;14.818;2024-03-02T06:09:59;41.73;;;26.07;;
5923;SDS011;2987;50.884;14.818;2024-03-02T06:12:25;42.70;;;25.67;;
5923;SDS011;2987;50.884;14.818;2024-03-02T06:14:51;45.27;;;26.30;;
5923;SDS011;2987;50.884;14.818;2024-03-02T06:17:17;45.40;;;27.23;;
5923;SDS011;2987;50.884;14.818;2024-03-02T06:19:44;42.10;;;26.50;;
5923;SDS011;2987;50.884;14.818;2024-03-02T06:22:11;38.83;;;24.27;;
5923;SDS011;2987;50.884;14.818;2024-03-02T06:24:38;41.67;;;25.93;;
5923;SDS011;2987;50.884;14.818;2024-03-02T06:27:04;42.97;;;26.13;;
5923;SDS011;2987;50.884;14.818;2024-03-02T06:29:34;45.63;;;26.87;;
5923;SDS011;2987;50.884;14.818;2024-03-02T06:32:01;43.80;;;25.23;;
5923;SDS011;2987;50.884;14.818;2024-03-02T06:34:27;42.83;;;27.07;;
5923;SDS011;2987;50.884;14.818;2024-03-02T06:36:53;50.00;;;27.20;;
5923;SDS011;2987;50.884;14.818;2024-03-02T06:39:19;36.67;;;23.73;;
5923;SDS011;2987;50.884;14.818;2024-03-02T06:41:46;43.27;;;25.67;;
5923;SDS011;2987;50.884;14.818;2024-03-02T06:44:13;38.30;;;24.77;;
5923;SDS011;2987;50.884;14.818;2024-03-02T06:46:39;40.43;;;25.93;;
5923;SDS011;2987;50.884;14.818;2024-03-02T06:49:05;38.30;;;25.17;;
5923;SDS011;2987;50.884;14.818;2024-03-02T06:51:31;38.17;;;25.27;;
5923;SDS011;2987;50.884;14.818;2024-03-02T06:53:59;41.10;;;26.00;;
5923;SDS011;2987;50.884;14.818;2024-03-02T06:56:26;45.30;;;27.77;;
5923;SDS011;2987;50.884;14.818;2024-03-02T06:58:52;42.27;;;26.00;;
5923;SDS011;2987;50.884;14.818;2024-03-02T07:01:18;43.27;;;26.13;;
5923;SDS011;2987;50.884;14.818;2024-03-02T07:03:45;45.33;;;27.50;;
5923;SDS011;2987;50.884;14.818;2024-03-02T07:06:11;43.70;;;25.70;;
5923;SDS011;2987;50.884;14.818;2024-03-02T07:08:37;43.83;;;26.47;;
5923;SDS011;2987;50.884;14.818;2024-03-02T07:11:03;42.37;;;26.07;;
5923;SDS011;2987;50.884;14.818;2024-03-02T07:13:30;42.07;;;26.50;;
5923;SDS011;2987;50.884;14.818;2024-03-02T07:15:56;41.30;;;24.97;;
5923;SDS011;2987;50.884;14.818;2024-03-02T07:18:28;42.63;;;26.40;;
5923;SDS011;2987;50.884;14.818;2024-03-02T07:20:54;45.13;;;26.93;;
5923;SDS011;2987;50.884;14.818;2024-03-02T07:23:21;37.27;;;24.70;;
5923;SDS011;2987;50.884;14.818;2024-03-02T07:25:49;41.00;;;25.70;;
5923;SDS011;2987;50.884;14.818;2024-03-02T07:28:16;42.93;;;26.33;;
5923;SDS011;2987;50.884;14.818;2024-03-02T07:30:42;44.00;;;26.87;;
5923;SDS011;2987;50.884;14.818;2024-03-02T07:33:09;41.63;;;26.17;;
5923;SDS011;2987;50.884;14.818;2024-03-02T07:35:35;39.00;;;25.43;;
5923;SDS011;2987;50.884;14.818;2024-03-02T07:38:01;38.47;;;24.83;;
5923;SDS011;2987;50.884;14.818;2024-03-02T07:40:27;42.00;;;26.20;;
5923;SDS011;2987;50.884;14.818;2024-03-02T07:42:53;42.50;;;26.47;;
5923;SDS011;2987;50.884;14.818;2024-03-02T07:45:20;44.27;;;27.47;;
5923;SDS011;2987;50.884;14.818;2024-03-02T07:47:46;40.80;;;26.20;;
5923;SDS011;2987;50.884;14.818;2024-03-02T07:50:13;45.07;;;28.13;;
5923;SDS011;2987;50.884;14.818;2024-03-02T07:52:39;43.53;;;26.47;;
5923;SDS011;2987;50.884;14.818;2024-03-02T07:55:05;44.23;;;27.17;;
5923;SDS011;2987;50.884;14.818;2024-03-02T07:57:32;41.27;;;25.00;;
5923;SDS011;2987;50.884;14.818;2024-03-02T07:59:58;46.57;;;26.00;;
5923;SDS011;2987;50.884;14.818;2024-03-02T08:02:24;44.23;;;25.13;;
5923;SDS011;2987;50.884;14.818;2024-03-02T08:04:51;41.07;;;25.50;;
5923;SDS011;2987;50.884;14.818;2024-03-02T08:07:17;40.60;;;25.47;;
5923;SDS011;2987;50.884;14.818;2024-03-02T08:09:43;37.20;;;24.67;;
5923;SDS011;2987;50.884;14.818;2024-03-02T08:12:09;38.90;;;24.10;;
5923;SDS011;2987;50.884;14.818;2024-03-02T08:14:35;37.73;;;24.17;;
5923;SDS011;2987;50.884;14.818;2024-03-02T08:17:02;34.47;;;23.27;;
5923;SDS011;2987;50.884;14.818;2024-03-02T08:19:29;35.30;;;24.13;;
5923;SDS011;2987;50.884;14.818;2024-03-02T08:21:55;40.97;;;25.07;;
5923;SDS011;2987;50.884;14.818;2024-03-02T08:24:21;35.80;;;23.80;;
5923;SDS011;2987;50.884;14.818;2024-03-02T08:26:47;38.83;;;24.50;;
5923;SDS011;2987;50.884;14.818;2024-03-02T08:29:14;33.67;;;22.53;;
5923;SDS011;2987;50.884;14.818;2024-03-02T08:31:40;39.23;;;24.93;;
5923;SDS011;2987;50.884;14.818;2024-03-02T08:34:06;37.83;;;24.03;;
5923;SDS011;2987;50.884;14.818;2024-03-02T08:36:33;37.50;;;22.13;;
5923;SDS011;2987;50.884;14.818;2024-03-02T08:38:59;34.43;;;22.63;;
5923;SDS011;2987;50.884;14.818;2024-03-02T08:41:25;36.37;;;23.23;;
5923;SDS011;2987;50.884;14.818;2024-03-02T08:43:51;35.10;;;22.03;;
5923;SDS011;2987;50.884;14.818;2024-03-02T08:46:17;32.57;;;21.93;;
5923;SDS011;2987;50.884;14.818;2024-03-02T08:48:43;34.17;;;22.53;;
5923;SDS011;2987;50.884;14.818;2024-03-02T08:51:09;34.67;;;21.43;;
5923;SDS011;2987;50.884;14.818;2024-03-02T08:53:36;33.10;;;21.53;;
5923;SDS011;2987;50.884;14.818;2024-03-02T08:56:03;35.63;;;22.57;;
5923;SDS011;2987;50.884;14.818;2024-03-02T08:58:31;36.03;;;22.87;;
5923;SDS011;2987;50.884;14.818;2024-03-02T09:00:57;33.33;;;21.17;;
5923;SDS011;2987;50.884;14.818;2024-03-02T09:03:24;32.13;;;21.63;;
5923;SDS011;2987;50.884;14.818;2024-03-02T09:05:50;38.03;;;22.03;;
5923;SDS011;2987;50.884;14.818;2024-03-02T09:08:16;34.60;;;20.70;;
5923;SDS011;2987;50.884;14.818;2024-03-02T09:10:42;34.43;;;20.50;;
5923;SDS011;2987;50.884;14.818;2024-03-02T09:13:09;30.50;;;21.23;;
5923;SDS011;2987;50.884;14.818;2024-03-02T09:15:35;35.23;;;21.43;;
5923;SDS011;2987;50.884;14.818;2024-03-02T09:18:05;33.87;;;22.23;;
5923;SDS011;2987;50.884;14.818;2024-03-02T09:20:32;33.53;;;21.43;;
5923;SDS011;2987;50.884;14.818;2024-03-02T09:22:58;33.77;;;22.60;;
5923;SDS011;2987;50.884;14.818;2024-03-02T09:25:24;33.40;;;21.10;;
5923;SDS011;2987;50.884;14.818;2024-03-02T09:27:51;35.97;;;21.47;;
5923;SDS011;2987;50.884;14.818;2024-03-02T09:30:17;30.50;;;20.47;;
5923;SDS011;2987;50.884;14.818;2024-03-02T09:32:43;32.33;;;20.53;;
5923;SDS011;2987;50.884;14.818;2024-03-02T09:35:09;32.67;;;21.10;;
5923;SDS011;2987;50.884;14.818;2024-03-02T09:37:36;36.77;;;20.60;;
5923;SDS011;2987;50.884;14.818;2024-03-02T09:40:02;29.00;;;18.67;;
5923;SDS011;2987;50.884;14.818;2024-03-02T09:42:29;30.30;;;19.90;;
5923;SDS011;2987;50.884;14.818;2024-03-02T09:44:55;29.97;;;18.50;;
5923;SDS011;2987;50.884;14.818;2024-03-02T09:47:22;31.53;;;19.77;;
5923;SDS011;2987;50.884;14.818;2024-03-02T09:49:49;29.53;;;19.73;;
5923;SDS011;2987;50.884;14.818;2024-03-02T09:52:16;28.83;;;18.37;;
5923;SDS011;2987;50.884;14.818;2024-03-02T09:54:42;30.30;;;19.30;;
5923;SDS011;2987;50.884;14.818;2024-03-02T09:57:08;27.33;;;19.20;;
5923;SDS011;2987;50.884;14.818;2024-03-02T09:59:35;30.93;;;19.77;;
5923;SDS011;2987;50.884;14.818;2024-03-02T10:02:02;30.00;;;18.43;;
5923;SDS011;2987;50.884;14.818;2024-03-02T10:04:29;26.00;;;17.97;;
5923;SDS011;2987;50.884;14.818;2024-03-02T10:07:11;25.83;;;17.63;;
5923;SDS011;2987;50.884;14.818;2024-03-02T10:09:39;28.87;;;19.03;;
5923;SDS011;2987;50.884;14.818;2024-03-02T10:12:08;27.90;;;17.93;;
5923;SDS011;2987;50.884;14.818;2024-03-02T10:14:35;26.13;;;16.87;;
5923;SDS011;2987;50.884;14.818;2024-03-02T10:17:02;26.50;;;17.37;;
5923;SDS011;2987;50.884;14.818;2024-03-02T10:19:29;27.17;;;16.43;;
5923;SDS011;2987;50.884;14.818;2024-03-02T10:21:59;26.90;;;18.03;;
5923;SDS011;2987;50.884;14.818;2024-03-02T10:24:25;23.13;;;16.17;;
5923;SDS011;2987;50.884;14.818;2024-03-02T10:26:51;23.23;;;16.37;;
5923;SDS011;2987;50.884;14.818;2024-03-02T10:29:18;26.23;;;17.40;;
5923;SDS011;2987;50.884;14.818;2024-03-02T10:31:45;25.90;;;17.57;;
5923;SDS011;2987;50.884;14.818;2024-03-02T10:34:12;27.03;;;17.60;;
5923;SDS011;2987;50.884;14.818;2024-03-02T10:36:42;25.37;;;16.97;;
5923;SDS011;2987;50.884;14.818;2024-03-02T10:39:09;24.80;;;16.77;;
5923;SDS011;2987;50.884;14.818;2024-03-02T10:41:36;25.37;;;18.33;;
5923;SDS011;2987;50.884;14.818;2024-03-02T10:44:06;26.20;;;17.63;;
5923;SDS011;2987;50.884;14.818;2024-03-02T10:46:34;26.17;;;17.30;;
5923;SDS011;2987;50.884;14.818;2024-03-02T10:49:02;28.13;;;16.57;;
5923;SDS011;2987;50.884;14.818;2024-03-02T10:51:33;23.77;;;16.83;;
5923;SDS011;2987;50.884;14.818;2024-03-02T10:54:02;24.80;;;17.00;;
5923;SDS011;2987;50.884;14.818;2024-03-02T10:56:38;24.90;;;17.10;;
5923;SDS011;2987;50.884;14.818;2024-03-02T11:01:43;22.57;;;16.00;;
5923;SDS011;2987;50.884;14.818;2024-03-02T11:04:15;27.80;;;17.07;;
5923;SDS011;2987;50.884;14.818;2024-03-02T11:06:45;23.17;;;16.33;;
5923;SDS011;2987;50.884;14.818;2024-03-02T11:09:14;24.77;;;17.33;;
5923;SDS011;2987;50.884;14.818;2024-03-02T11:11:48;23.27;;;16.67;;
5923;SDS011;2987;50.884;14.818;2024-03-02T11:14:21;21.60;;;16.17;;
5923;SDS011;2987;50.884;14.818;2024-03-02T11:16:50;23.27;;;16.93;;
5923;SDS011;2987;50.884;14.818;2024-03-02T11:19:17;24.53;;;16.90;;
5923;SDS011;2987;50.884;14.818;2024-03-02T11:21:44;22.10;;;15.77;;
5923;SDS011;2987;50.884;14.818;2024-03-02T11:26:52;25.03;;;17.60;;
5923;SDS011;2987;50.884;14.818;2024-03-02T11:32:12;24.27;;;15.63;;
5923;SDS011;2987;50.884;14.818;2024-03-02T11:34:44;24.23;;;16.70;;
5923;SDS011;2987;50.884;14.818;2024-03-02T11:37:12;23.70;;;14.87;;
5923;SDS011;2987;50.884;14.818;2024-03-02T11:39:40;26.43;;;16.90;;
5923;SDS011;2987;50.884;14.818;2024-03-02T11:42:06;24.67;;;16.03;;
5923;SDS011;2987;50.884;14.818;2024-03-02T11:44:35;22.33;;;16.33;;
5923;SDS011;2987;50.884;14.818;2024-03-02T11:47:06;24.40;;;16.13;;
5923;SDS011;2987;50.884;14.818;2024-03-02T11:49:41;25.20;;;17.97;;
5923;SDS011;2987;50.884;14.818;2024-03-02T11:52:09;30.43;;;19.60;;
5923;SDS011;2987;50.884;14.818;2024-03-02T11:54:40;25.70;;;19.57;;
5923;SDS011;2987;50.884;14.818;2024-03-02T11:57:20;27.83;;;19.03;;
5923;SDS011;2987;50.884;14.818;2024-03-02T11:59:49;27.17;;;19.00;;
5923;SDS011;2987;50.884;14.818;2024-03-02T12:02:19;24.20;;;18.00;;
5923;SDS011;2987;50.884;14.818;2024-03-02T12:04:46;27.37;;;18.33;;
5923;SDS011;2987;50.884;14.818;2024-03-02T12:07:23;29.83;;;19.07;;
5923;SDS011;2987;50.884;14.818;2024-03-02T12:09:59;31.00;;;20.43;;
5923;SDS011;2987;50.884;14.818;2024-03-02T12:12:27;29.00;;;20.83;;
5923;SDS011;2987;50.884;14.818;2024-03-02T12:14:53;31.50;;;21.47;;
5923;SDS011;2987;50.884;14.818;2024-03-02T12:17:21;24.97;;;17.93;;
5923;SDS011;2987;50.884;14.818;2024-03-02T12:19:48;27.47;;;18.10;;
5923;SDS011;2987;50.884;14.818;2024-03-02T12:22:14;25.97;;;18.63;;
5923;SDS011;2987;50.884;14.818;2024-03-02T12:24:41;27.77;;;18.77;;
5923;SDS011;2987;50.884;14.818;2024-03-02T12:27:11;28.97;;;21.63;;
5923;SDS011;2987;50.884;14.818;2024-03-02T12:29:38;30.00;;;20.67;;
5923;SDS011;2987;50.884;14.818;2024-03-02T12:32:05;30.77;;;19.60;;
5923;SDS011;2987;50.884;14.818;2024-03-02T12:34:31;30.97;;;21.07;;
5923;SDS011;2987;50.884;14.818;2024-03-02T12:36:57;35.27;;;22.23;;
5923;SDS011;2987;50.884;14.818;2024-03-02T12:39:24;33.77;;;22.43;;
5923;SDS011;2987;50.884;14.818;2024-03-02T12:41:50;29.63;;;21.20;;
5923;SDS011;2987;50.884;14.818;2024-03-02T12:44:17;32.30;;;20.90;;
5923;SDS011;2987;50.884;14.818;2024-03-02T12:46:44;29.20;;;19.47;;
5923;SDS011;2987;50.884;14.818;2024-03-02T12:49:11;25.83;;;17.80;;
5923;SDS011;2987;50.884;14.818;2024-03-02T12:51:39;27.63;;;18.60;;
5923;SDS011;2987;50.884;14.818;2024-03-02T12:54:07;22.63;;;17.43;;
5923;SDS011;2987;50.884;14.818;2024-03-02T12:56:37;24.20;;;16.00;;
5923;SDS011;2987;50.884;14.818;2024-03-02T12:59:04;22.67;;;16.83;;
5923;SDS011;2987;50.884;14.818;2024-03-02T13:01:30;23.73;;;15.57;;
5923;SDS011;2987;50.884;14.818;2024-03-02T13:03:57;23.87;;;16.00;;
5923;SDS011;2987;50.884;14.818;2024-03-02T13:06:25;20.57;;;14.93;;
5923;SDS011;2987;50.884;14.818;2024-03-02T13:08:55;23.10;;;16.10;;
5923;SDS011;2987;50.884;14.818;2024-03-02T13:11:22;21.73;;;16.03;;
5923;SDS011;2987;50.884;14.818;2024-03-02T13:13:50;23.13;;;17.50;;
5923;SDS011;2987;50.884;14.818;2024-03-02T13:16:16;23.43;;;16.73;;
5923;SDS011;2987;50.884;14.818;2024-03-02T13:18:45;25.77;;;18.10;;
5923;SDS011;2987;50.884;14.818;2024-03-02T13:21:11;22.50;;;15.50;;
5923;SDS011;2987;50.884;14.818;2024-03-02T13:23:37;23.07;;;15.53;;
5923;SDS011;2987;50.884;14.818;2024-03-02T13:26:04;18.97;;;15.33;;
5923;SDS011;2987;50.884;14.818;2024-03-02T13:28:30;22.67;;;15.73;;
5923;SDS011;2987;50.884;14.818;2024-03-02T13:30:56;18.40;;;14.43;;
5923;SDS011;2987;50.884;14.818;2024-03-02T13:33:22;20.60;;;14.87;;
5923;SDS011;2987;50.884;14.818;2024-03-02T13:35:49;23.37;;;16.10;;
5923;SDS011;2987;50.884;14.818;2024-03-02T13:38:24;20.73;;;16.50;;
5923;SDS011;2987;50.884;14.818;2024-03-02T13:40:50;21.23;;;16.33;;
5923;SDS011;2987;50.884;14.818;2024-03-02T13:43:16;22.10;;;16.53;;
5923;SDS011;2987;50.884;14.818;2024-03-02T13:45:44;21.37;;;16.27;;
5923;SDS011;2987;50.884;14.818;2024-03-02T13:48:11;22.07;;;16.57;;
5923;SDS011;2987;50.884;14.818;2024-03-02T13:50:37;22.07;;;15.93;;
5923;SDS011;2987;50.884;14.818;2024-03-02T13:53:03;20.50;;;15.80;;
5923;SDS011;2987;50.884;14.818;2024-03-02T13:55:29;22.03;;;15.87;;
5923;SDS011;2987;50.884;14.818;2024-03-02T13:57:56;23.03;;;15.70;;
5923;SDS011;2987;50.884;14.818;2024-03-02T14:00:22;21.17;;;15.67;;
5923;SDS011;2987;50.884;14.818;2024-03-02T14:02:48;21.03;;;16.17;;
5923;SDS011;2987;50.884;14.818;2024-03-02T14:05:15;23.73;;;15.10;;
5923;SDS011;2987;50.884;14.818;2024-03-02T14:07:42;22.27;;;15.43;;
5923;SDS011;2987;50.884;14.818;2024-03-02T14:10:08;23.77;;;17.63;;
5923;SDS011;2987;50.884;14.818;2024-03-02T14:12:34;21.83;;;17.07;;
5923;SDS011;2987;50.884;14.818;2024-03-02T14:15:01;23.30;;;15.87;;
5923;SDS011;2987;50.884;14.818;2024-03-02T14:17:30;24.23;;;17.53;;
5923;SDS011;2987;50.884;14.818;2024-03-02T14:19:58;23.67;;;16.47;;
5923;SDS011;2987;50.884;14.818;2024-03-02T14:22:25;24.00;;;16.80;;
5923;SDS011;2987;50.884;14.818;2024-03-02T14:24:51;19.87;;;16.07;;
5923;SDS011;2987;50.884;14.818;2024-03-02T14:27:17;23.03;;;16.40;;
5923;SDS011;2987;50.884;14.818;2024-03-02T14:29:44;22.63;;;16.33;;
5923;SDS011;2987;50.884;14.818;2024-03-02T14:32:10;21.90;;;17.13;;
5923;SDS011;2987;50.884;14.818;2024-03-02T14:34:36;21.20;;;16.03;;
5923;SDS011;2987;50.884;14.818;2024-03-02T14:37:03;23.17;;;16.43;;
5923;SDS011;2987;50.884;14.818;2024-03-02T14:39:29;23.43;;;17.13;;
5923;SDS011;2987;50.884;14.818;2024-03-02T14:42:00;23.37;;;16.90;;
5923;SDS011;2987;50.884;14.818;2024-03-02T14:44:26;24.70;;;17.90;;
5923;SDS011;2987;50.884;14.818;2024-03-02T14:46:52;24.17;;;18.00;;